sensor_id;sensor_type;location;lat;lon;timestamp;pressure;altitude;pressure_sealevel;temperature;humidity
61109;BME280;46995;55.740;37.402;2023-05-24T00:01:43;99495.00;;;16.23;80.73
61109;BME280;46995;55.740;37.402;2023-05-24T00:04:09;99443.94;;;15.95;80.19
61109;BME280;46995;55.740;37.402;2023-05-24T00:06:35;99436.28;;;16.00;80.03
61109;BME280;46995;55.740;37.402;2023-05-24T00:09:04;99468.53;;;16.14;79.24
61109;BME280;46995;55.740;37.402;2023-05-24T00:11:30;99483.81;;;16.28;79.04
61109;BME280;46995;55.740;37.402;2023-05-24T00:13:56;99464.53;;;16.26;79.17
61109;BME280;46995;55.740;37.402;2023-05-24T00:16:22;99440.56;;;16.09;78.78
61109;BME280;46995;55.740;37.402;2023-05-24T00:18:48;99457.56;;;16.17;78.60
61109;BME280;46995;55.740;37.402;2023-05-24T00:21:14;99477.66;;;16.35;78.28
61109;BME280;46995;55.740;37.402;2023-05-24T00:23:40;99451.56;;;16.15;78.50
61109;BME280;46995;55.740;37.402;2023-05-24T00:26:07;99428.91;;;16.02;78.20
61109;BME280;46995;55.740;37.402;2023-05-24T00:28:34;99479.34;;;16.36;78.29
61109;BME280;46995;55.740;37.402;2023-05-24T00:31:00;99438.91;;;16.08;78.10
61109;BME280;46995;55.740;37.402;2023-05-24T00:33:26;99441.22;;;16.20;77.65
61109;BME280;46995;55.740;37.402;2023-05-24T00:35:53;99416.28;;;16.04;77.36
61109;BME280;46995;55.740;37.402;2023-05-24T00:38:21;99418.91;;;16.13;77.18
61109;BME280;46995;55.740;37.402;2023-05-24T00:40:52;99407.28;;;16.05;77.04
61109;BME280;46995;55.740;37.402;2023-05-24T00:43:18;99468.31;;;16.39;77.13
61109;BME280;46995;55.740;37.402;2023-05-24T00:45:44;99416.75;;;16.08;77.10
61109;BME280;46995;55.740;37.402;2023-05-24T00:48:10;99412.94;;;16.10;76.83
61109;BME280;46995;55.740;37.402;2023-05-24T00:50:37;99440.22;;;16.21;76.65
61109;BME280;46995;55.740;37.402;2023-05-24T00:53:05;99424.75;;;16.16;76.97
61109;BME280;46995;55.740;37.402;2023-05-24T00:55:33;99417.28;;;16.12;77.15
61109;BME280;46995;55.740;37.402;2023-05-24T00:57:59;99415.91;;;16.07;76.65
61109;BME280;46995;55.740;37.402;2023-05-24T01:00:27;99422.25;;;16.15;76.77
61109;BME280;46995;55.740;37.402;2023-05-24T01:02:54;99411.78;;;16.05;76.78
61109;BME280;46995;55.740;37.402;2023-05-24T01:05:20;99435.53;;;16.23;76.48
61109;BME280;46995;55.740;37.402;2023-05-24T01:08:13;99448.84;;;16.31;76.76
61109;BME280;46995;55.740;37.402;2023-05-24T01:11:02;99403.94;;;16.03;77.27
61109;BME280;46995;55.740;37.402;2023-05-24T01:13:42;99394.31;;;15.94;77.51
61109;BME280;46995;55.740;37.402;2023-05-24T01:16:18;99432.44;;;16.11;77.28
61109;BME280;46995;55.740;37.402;2023-05-24T01:18:50;99408.63;;;15.93;77.71
61109;BME280;46995;55.740;37.402;2023-05-24T01:27:12;99435.09;;;16.03;77.88
61109;BME280;46995;55.740;37.402;2023-05-24T01:29:39;99434.59;;;15.99;78.22
61109;BME280;46995;55.740;37.402;2023-05-24T01:32:05;99391.19;;;15.66;78.25
61109;BME280;46995;55.740;37.402;2023-05-24T01:34:31;99442.09;;;15.96;78.23
61109;BME280;46995;55.740;37.402;2023-05-24T01:36:57;99415.97;;;15.83;78.32
61109;BME280;46995;55.740;37.402;2023-05-24T01:39:38;99355.59;;;15.51;78.70
61109;BME280;46995;55.740;37.402;2023-05-24T01:50:05;99393.69;;;15.68;79.28
61109;BME280;46995;55.740;37.402;2023-05-24T01:52:33;99401.00;;;15.74;79.04
61109;BME280;46995;55.740;37.402;2023-05-24T01:55:02;99417.31;;;15.79;79.13
61109;BME280;46995;55.740;37.402;2023-05-24T01:57:30;99397.03;;;15.70;79.08
61109;BME280;46995;55.740;37.402;2023-05-24T02:00:00;99378.38;;;15.62;79.02
61109;BME280;46995;55.740;37.402;2023-05-24T02:02:29;99426.59;;;15.91;79.08
61109;BME280;46995;55.740;37.402;2023-05-24T02:04:55;99400.03;;;15.75;78.74
61109;BME280;46995;55.740;37.402;2023-05-24T02:07:21;99373.41;;;15.59;79.15
61109;BME280;46995;55.740;37.402;2023-05-24T02:09:47;99401.00;;;15.66;79.26
61109;BME280;46995;55.740;37.402;2023-05-24T02:12:13;99393.22;;;15.64;79.25
61109;BME280;46995;55.740;37.402;2023-05-24T02:14:38;99391.19;;;15.66;79.23
61109;BME280;46995;55.740;37.402;2023-05-24T02:17:07;99423.97;;;15.83;79.22
61109;BME280;46995;55.740;37.402;2023-05-24T02:19:34;99376.91;;;15.59;79.33
61109;BME280;46995;55.740;37.402;2023-05-24T02:22:22;99418.81;;;15.90;79.12
61109;BME280;46995;55.740;37.402;2023-05-24T02:24:48;99373.41;;;15.59;79.27
61109;BME280;46995;55.740;37.402;2023-05-24T02:27:13;99387.84;;;15.73;79.24
61109;BME280;46995;55.740;37.402;2023-05-24T02:29:39;99409.47;;;15.94;78.97
61109;BME280;46995;55.740;37.402;2023-05-24T02:32:06;99396.34;;;15.84;78.76
61109;BME280;46995;55.740;37.402;2023-05-24T02:34:32;99386.34;;;15.86;78.94
61109;BME280;46995;55.740;37.402;2023-05-24T02:36:58;99379.69;;;15.82;78.73
61109;BME280;46995;55.740;37.402;2023-05-24T02:39:24;99379.38;;;15.85;78.59
61109;BME280;46995;55.740;37.402;2023-05-24T02:41:50;99380.84;;;15.88;78.64
61109;BME280;46995;55.740;37.402;2023-05-24T02:44:31;99410.91;;;16.21;78.89
61109;BME280;46995;55.740;37.402;2023-05-24T02:46:59;99403.91;;;16.20;78.68
61109;BME280;46995;55.740;37.402;2023-05-24T02:49:26;99364.34;;;16.00;78.53
61109;BME280;46995;55.740;37.402;2023-05-24T02:51:51;99381.28;;;16.07;78.52
61109;BME280;46995;55.740;37.402;2023-05-24T02:54:17;99407.53;;;16.35;78.34
61109;BME280;46995;55.740;37.402;2023-05-24T02:56:43;99362.47;;;16.09;78.41
61109;BME280;46995;55.740;37.402;2023-05-24T02:59:09;99414.53;;;16.36;78.53
61109;BME280;46995;55.740;37.402;2023-05-24T03:01:37;99361.47;;;16.10;78.49
61109;BME280;46995;55.740;37.402;2023-05-24T03:04:03;99368.97;;;16.15;78.35
61109;BME280;46995;55.740;37.402;2023-05-24T03:06:29;99415.50;;;16.43;78.14
61109;BME280;46995;55.740;37.402;2023-05-24T03:08:55;99357.31;;;16.07;78.11
61109;BME280;46995;55.740;37.402;2023-05-24T03:11:24;99380.59;;;16.22;78.10
61109;BME280;46995;55.740;37.402;2023-05-24T03:13:50;99359.47;;;16.12;78.08
61109;BME280;46995;55.740;37.402;2023-05-24T03:16:16;99375.28;;;16.22;78.26
61109;BME280;46995;55.740;37.402;2023-05-24T03:18:45;99415.19;;;16.38;78.17
61109;BME280;46995;55.740;37.402;2023-05-24T03:21:14;99361.81;;;16.07;78.29
61109;BME280;46995;55.740;37.402;2023-05-24T03:23:43;99405.22;;;16.32;78.01
61109;BME280;46995;55.740;37.402;2023-05-24T03:26:09;99387.94;;;16.20;77.83
61109;BME280;46995;55.740;37.402;2023-05-24T03:28:34;99387.25;;;16.18;77.79
61109;BME280;46995;55.740;37.402;2023-05-24T03:31:01;99376.78;;;16.16;77.71
61109;BME280;46995;55.740;37.402;2023-05-24T03:33:27;99383.59;;;16.27;77.42
61109;BME280;46995;55.740;37.402;2023-05-24T03:35:54;99394.13;;;16.51;77.08
61109;BME280;46995;55.740;37.402;2023-05-24T03:38:20;99373.94;;;16.65;76.23
61109;BME280;46995;55.740;37.402;2023-05-24T03:40:46;99354.09;;;16.67;75.88
61109;BME280;46995;55.740;37.402;2023-05-24T03:43:16;99345.19;;;16.75;75.00
61109;BME280;46995;55.740;37.402;2023-05-24T03:45:55;99357.81;;;16.89;74.42
61109;BME280;46995;55.740;37.402;2023-05-24T03:48:20;99385.81;;;17.16;74.26
61109;BME280;46995;55.740;37.402;2023-05-24T03:50:47;99375.59;;;17.19;73.69
61109;BME280;46995;55.740;37.402;2023-05-24T03:53:16;99340.97;;;16.88;73.94
61109;BME280;46995;55.740;37.402;2023-05-24T03:55:42;99337.84;;;16.85;73.89
61109;BME280;46995;55.740;37.402;2023-05-24T03:58:10;99353.94;;;16.91;74.20
61109;BME280;46995;55.740;37.402;2023-05-24T04:08:41;99300.00;;;16.81;73.12
61109;BME280;46995;55.740;37.402;2023-05-24T04:11:48;99347.13;;;17.12;73.22
61109;BME280;46995;55.740;37.402;2023-05-24T04:14:14;99338.50;;;17.10;73.03
61109;BME280;46995;55.740;37.402;2023-05-24T04:16:40;99356.47;;;17.16;73.31
61109;BME280;46995;55.740;37.402;2023-05-24T04:19:06;99364.47;;;17.16;73.28
61109;BME280;46995;55.740;37.402;2023-05-24T04:21:33;99365.16;;;17.10;73.60
61109;BME280;46995;55.740;37.402;2023-05-24T04:23:59;99381.41;;;17.23;73.58
61109;BME280;46995;55.740;37.402;2023-05-24T04:26:26;99386.81;;;17.15;73.48
61109;BME280;46995;55.740;37.402;2023-05-24T04:28:52;99379.88;;;17.06;73.33
61109;BME280;46995;55.740;37.402;2023-05-24T04:31:19;99384.47;;;17.12;73.60
61109;BME280;46995;55.740;37.402;2023-05-24T04:33:45;99379.16;;;17.12;73.60
61109;BME280;46995;55.740;37.402;2023-05-24T04:36:13;99357.22;;;17.02;73.76
61109;BME280;46995;55.740;37.402;2023-05-24T04:38:39;99360.00;;;17.08;73.98
61109;BME280;46995;55.740;37.402;2023-05-24T04:41:06;99376.03;;;17.31;73.62
61109;BME280;46995;55.740;37.402;2023-05-24T04:43:32;99384.66;;;17.33;73.31
61109;BME280;46995;55.740;37.402;2023-05-24T04:45:59;99389.25;;;17.47;73.29
61109;BME280;46995;55.740;37.402;2023-05-24T04:48:25;99349.25;;;17.39;72.86
61109;BME280;46995;55.740;37.402;2023-05-24T04:50:51;99373.13;;;17.63;71.70
61109;BME280;46995;55.740;37.402;2023-05-24T04:53:18;99378.94;;;17.82;72.18
61109;BME280;46995;55.740;37.402;2023-05-24T04:55:43;99366.78;;;17.94;71.74
61109;BME280;46995;55.740;37.402;2023-05-24T04:58:10;99378.50;;;18.22;70.67
61109;BME280;46995;55.740;37.402;2023-05-24T05:00:35;99367.25;;;18.41;70.34
61109;BME280;46995;55.740;37.402;2023-05-24T05:03:01;99368.41;;;18.53;69.37
61109;BME280;46995;55.740;37.402;2023-05-24T05:05:27;99385.31;;;18.69;68.51
61109;BME280;46995;55.740;37.402;2023-05-24T05:07:52;99384.19;;;18.78;68.17
61109;BME280;46995;55.740;37.402;2023-05-24T05:10:18;99380.50;;;18.79;68.09
61109;BME280;46995;55.740;37.402;2023-05-24T05:12:45;99380.38;;;18.87;67.00
61109;BME280;46995;55.740;37.402;2023-05-24T05:15:21;99369.28;;;18.90;66.50
61109;BME280;46995;55.740;37.402;2023-05-24T05:17:48;99366.88;;;18.95;66.57
61109;BME280;46995;55.740;37.402;2023-05-24T05:20:14;99376.72;;;19.09;66.12
61109;BME280;46995;55.740;37.402;2023-05-24T05:22:47;99382.13;;;19.16;65.27
61109;BME280;46995;55.740;37.402;2023-05-24T05:25:15;99386.28;;;19.18;64.46
61109;BME280;46995;55.740;37.402;2023-05-24T05:27:47;99349.72;;;18.89;64.82
61109;BME280;46995;55.740;37.402;2023-05-24T05:30:13;99329.94;;;18.84;65.30
61109;BME280;46995;55.740;37.402;2023-05-24T05:32:39;99376.47;;;19.25;65.30
61109;BME280;46995;55.740;37.402;2023-05-24T05:35:07;99364.53;;;19.28;64.36
61109;BME280;46995;55.740;37.402;2023-05-24T05:37:34;99353.25;;;19.32;63.88
61109;BME280;46995;55.740;37.402;2023-05-24T05:40:00;99370.09;;;19.48;64.01
61109;BME280;46995;55.740;37.402;2023-05-24T05:42:26;99368.13;;;19.56;63.74
61109;BME280;46995;55.740;37.402;2023-05-24T05:44:52;99358.25;;;19.57;63.71
61109;BME280;46995;55.740;37.402;2023-05-24T05:47:18;99364.91;;;19.67;63.61
61109;BME280;46995;55.740;37.402;2023-05-24T05:49:44;99357.44;;;19.63;63.93
61109;BME280;46995;55.740;37.402;2023-05-24T05:52:10;99364.72;;;19.69;63.21
61109;BME280;46995;55.740;37.402;2023-05-24T05:54:36;99364.75;;;19.75;63.01
61109;BME280;46995;55.740;37.402;2023-05-24T05:57:02;99346.78;;;19.69;63.03
61109;BME280;46995;55.740;37.402;2023-05-24T05:59:28;99346.84;;;19.76;62.68
61109;BME280;46995;55.740;37.402;2023-05-24T06:01:54;99331.66;;;19.83;62.76
61109;BME280;46995;55.740;37.402;2023-05-24T06:04:19;99338.72;;;19.97;62.26
61109;BME280;46995;55.740;37.402;2023-05-24T06:06:45;99325.56;;;20.02;61.60
61109;BME280;46995;55.740;37.402;2023-05-24T06:09:15;99326.44;;;20.09;61.54
61109;BME280;46995;55.740;37.402;2023-05-24T06:11:41;99365.38;;;20.33;61.41
61109;BME280;46995;55.740;37.402;2023-05-24T06:14:13;99354.88;;;20.38;59.80
61109;BME280;46995;55.740;37.402;2023-05-24T06:16:43;99371.63;;;20.47;60.66
61109;BME280;46995;55.740;37.402;2023-05-24T06:19:11;99338.97;;;20.37;61.08
61109;BME280;46995;55.740;37.402;2023-05-24T06:21:40;99328.22;;;20.37;60.14
61109;BME280;46995;55.740;37.402;2023-05-24T06:24:14;99361.63;;;20.75;60.37
61109;BME280;46995;55.740;37.402;2023-05-24T06:26:42;99308.88;;;20.48;60.46
61109;BME280;46995;55.740;37.402;2023-05-24T06:29:08;99297.94;;;20.43;59.59
61109;BME280;46995;55.740;37.402;2023-05-24T06:31:34;99277.03;;;20.32;59.69
61109;BME280;46995;55.740;37.402;2023-05-24T06:34:00;99341.78;;;20.69;59.81
61109;BME280;46995;55.740;37.402;2023-05-24T06:36:25;99330.97;;;20.50;60.03
61109;BME280;46995;55.740;37.402;2023-05-24T06:38:51;99375.00;;;20.62;60.46
61109;BME280;46995;55.740;37.402;2023-05-24T06:41:17;99337.25;;;20.29;60.76
61109;BME280;46995;55.740;37.402;2023-05-24T06:43:43;99330.97;;;20.15;61.00
61109;BME280;46995;55.740;37.402;2023-05-24T06:46:08;99317.34;;;20.10;60.37
61109;BME280;46995;55.740;37.402;2023-05-24T06:48:34;99357.97;;;20.42;60.44
61109;BME280;46995;55.740;37.402;2023-05-24T06:51:00;99327.03;;;20.39;59.75
61109;BME280;46995;55.740;37.402;2023-05-24T06:53:26;99345.28;;;20.70;59.62
61109;BME280;46995;55.740;37.402;2023-05-24T06:55:52;99336.66;;;20.81;58.79
61109;BME280;46995;55.740;37.402;2023-05-24T06:58:18;99344.72;;;20.94;58.41
61109;BME280;46995;55.740;37.402;2023-05-24T07:00:43;99333.78;;;20.89;58.26
61109;BME280;46995;55.740;37.402;2023-05-24T07:03:11;99334.63;;;20.96;57.78
61109;BME280;46995;55.740;37.402;2023-05-24T07:05:37;99348.88;;;20.97;57.48
61109;BME280;46995;55.740;37.402;2023-05-24T07:08:04;99344.53;;;20.96;57.13
61109;BME280;46995;55.740;37.402;2023-05-24T07:11:05;99299.03;;;20.68;57.26
61109;BME280;46995;55.740;37.402;2023-05-24T07:17:34;99328.75;;;20.60;57.34
61109;BME280;46995;55.740;37.402;2023-05-24T07:21:15;99378.63;;;20.95;57.45
61109;BME280;46995;55.740;37.402;2023-05-24T07:23:48;99294.22;;;20.44;57.49
61109;BME280;46995;55.740;37.402;2023-05-24T07:26:34;99309.75;;;20.55;57.49
61109;BME280;46995;55.740;37.402;2023-05-24T07:29:28;99296.78;;;20.65;57.81
61109;BME280;46995;55.740;37.402;2023-05-24T07:32:32;99373.97;;;21.24;56.98
61109;BME280;46995;55.740;37.402;2023-05-24T07:38:29;99289.56;;;20.72;57.69
61109;BME280;46995;55.740;37.402;2023-05-24T07:40:59;99335.25;;;20.98;57.90
61109;BME280;46995;55.740;37.402;2023-05-24T07:43:26;99302.78;;;20.80;57.62
61109;BME280;46995;55.740;37.402;2023-05-24T07:45:52;99339.38;;;20.94;58.45
61109;BME280;46995;55.740;37.402;2023-05-24T07:48:19;99349.94;;;21.02;58.38
61109;BME280;46995;55.740;37.402;2023-05-24T07:50:47;99344.31;;;20.91;58.26
61109;BME280;46995;55.740;37.402;2023-05-24T07:53:14;99343.69;;;20.82;58.36
61109;BME280;46995;55.740;37.402;2023-05-24T07:55:42;99388.41;;;21.16;58.63
61109;BME280;46995;55.740;37.402;2023-05-24T07:58:11;99389.13;;;20.90;58.04
61109;BME280;46995;55.740;37.402;2023-05-24T08:00:37;99370.66;;;20.67;58.27
61109;BME280;46995;55.740;37.402;2023-05-24T08:03:04;99391.94;;;20.69;59.14
61109;BME280;46995;55.740;37.402;2023-05-24T08:05:30;99392.94;;;20.55;59.23
61109;BME280;46995;55.740;37.402;2023-05-24T08:07:56;99397.06;;;20.57;59.66
61109;BME280;46995;55.740;37.402;2023-05-24T08:10:22;99378.81;;;20.40;59.70
61109;BME280;46995;55.740;37.402;2023-05-24T08:12:49;99396.81;;;20.52;59.76
61109;BME280;46995;55.740;37.402;2023-05-24T08:15:19;99390.19;;;20.48;60.37
61109;BME280;46995;55.740;37.402;2023-05-24T08:17:45;99382.75;;;20.44;60.57
61109;BME280;46995;55.740;37.402;2023-05-24T08:20:11;99401.34;;;20.52;60.88
61109;BME280;46995;55.740;37.402;2023-05-24T08:22:40;99399.72;;;20.51;61.10
61109;BME280;46995;55.740;37.402;2023-05-24T08:25:08;99399.72;;;20.51;61.16
61109;BME280;46995;55.740;37.402;2023-05-24T08:27:34;99395.38;;;20.50;60.99
61109;BME280;46995;55.740;37.402;2023-05-24T08:30:22;99376.53;;;20.37;61.36
61109;BME280;46995;55.740;37.402;2023-05-24T08:33:46;99326.88;;;20.13;60.48
61109;BME280;46995;55.740;37.402;2023-05-24T08:36:40;99355.28;;;20.35;60.04
61109;BME280;46995;55.740;37.402;2023-05-24T08:39:23;99318.63;;;20.21;60.12
61109;BME280;46995;55.740;37.402;2023-05-24T08:41:55;99350.22;;;20.60;59.63
61109;BME280;46995;55.740;37.402;2023-05-24T08:44:22;99387.47;;;20.89;59.20
61109;BME280;46995;55.740;37.402;2023-05-24T08:53:29;99344.75;;;20.88;58.43
61109;BME280;46995;55.740;37.402;2023-05-24T08:56:08;99388.63;;;21.28;58.15
61109;BME280;46995;55.740;37.402;2023-05-24T08:58:37;99310.69;;;20.88;57.88
61109;BME280;46995;55.740;37.402;2023-05-24T09:01:12;99328.47;;;21.16;57.76
61109;BME280;46995;55.740;37.402;2023-05-24T09:03:42;99317.75;;;21.22;57.23
61109;BME280;46995;55.740;37.402;2023-05-24T09:06:09;99346.91;;;21.58;56.78
61109;BME280;46995;55.740;37.402;2023-05-24T09:08:43;99313.84;;;21.51;57.03
61109;BME280;46995;55.740;37.402;2023-05-24T09:11:17;99366.97;;;21.95;56.81
61109;BME280;46995;55.740;37.402;2023-05-24T09:13:44;99388.44;;;22.28;56.98
61109;BME280;46995;55.740;37.402;2023-05-24T09:16:21;99320.63;;;21.73;55.29
61109;BME280;46995;55.740;37.402;2023-05-24T09:18:58;99352.06;;;21.99;56.40
61109;BME280;46995;55.740;37.402;2023-05-24T09:21:26;99343.34;;;22.10;55.77
61109;BME280;46995;55.740;37.402;2023-05-24T09:23:57;99317.28;;;22.11;55.05
61109;BME280;46995;55.740;37.402;2023-05-24T09:26:27;99334.19;;;22.31;54.40
61109;BME280;46995;55.740;37.402;2023-05-24T09:29:05;99326.28;;;22.36;53.79
61109;BME280;46995;55.740;37.402;2023-05-24T09:31:33;99361.81;;;22.64;54.39
61109;BME280;46995;55.740;37.402;2023-05-24T09:34:09;99398.75;;;22.95;54.13
61109;BME280;46995;55.740;37.402;2023-05-24T09:37:20;99352.72;;;22.52;54.06
61109;BME280;46995;55.740;37.402;2023-05-24T09:40:19;99342.88;;;22.33;53.51
61109;BME280;46995;55.740;37.402;2023-05-24T09:43:24;99387.06;;;22.63;54.17
61109;BME280;46995;55.740;37.402;2023-05-24T09:45:55;99371.19;;;22.49;54.59
61109;BME280;46995;55.740;37.402;2023-05-24T09:48:22;99358.31;;;22.51;54.41
61109;BME280;46995;55.740;37.402;2023-05-24T09:51:03;99359.38;;;22.50;53.74
61109;BME280;46995;55.740;37.402;2023-05-24T09:53:34;99397.06;;;22.43;53.58
61109;BME280;46995;55.740;37.402;2023-05-24T09:56:05;99386.38;;;22.23;53.86
61109;BME280;46995;55.740;37.402;2023-05-24T09:58:34;99330.97;;;21.96;54.15
61109;BME280;46995;55.740;37.402;2023-05-24T10:01:08;99387.47;;;22.67;53.23
61109;BME280;46995;55.740;37.402;2023-05-24T10:03:55;99349.75;;;22.80;52.98
61109;BME280;46995;55.740;37.402;2023-05-24T10:06:30;99383.88;;;23.24;51.96
61109;BME280;46995;55.740;37.402;2023-05-24T10:08:59;99356.22;;;23.35;52.69
61109;BME280;46995;55.740;37.402;2023-05-24T10:11:26;99345.19;;;23.50;51.83
61109;BME280;46995;55.740;37.402;2023-05-24T10:13:52;99364.09;;;23.68;51.60
61109;BME280;46995;55.740;37.402;2023-05-24T10:16:21;99352.44;;;23.49;51.45
61109;BME280;46995;55.740;37.402;2023-05-24T10:18:47;99375.00;;;23.55;51.37
61109;BME280;46995;55.740;37.402;2023-05-24T10:21:12;99360.94;;;23.46;52.05
61109;BME280;46995;55.740;37.402;2023-05-24T10:23:43;99401.88;;;23.61;51.05
61109;BME280;46995;55.740;37.402;2023-05-24T10:26:11;99370.56;;;23.29;51.46
61109;BME280;46995;55.740;37.402;2023-05-24T10:28:46;99395.03;;;23.34;52.11
61109;BME280;46995;55.740;37.402;2023-05-24T10:31:24;99401.53;;;23.20;52.35
61109;BME280;46995;55.740;37.402;2023-05-24T10:33:56;99403.53;;;22.93;51.90
61109;BME280;46995;55.740;37.402;2023-05-24T10:36:23;99411.69;;;22.73;53.36
61109;BME280;46995;55.740;37.402;2023-05-24T10:38:53;99414.03;;;22.50;53.53
61109;BME280;46995;55.740;37.402;2023-05-24T10:41:20;99402.47;;;22.30;54.42
61109;BME280;46995;55.740;37.402;2023-05-24T10:43:47;99401.47;;;22.24;55.73
61109;BME280;46995;55.740;37.402;2023-05-24T10:46:16;99412.84;;;22.33;54.46
61109;BME280;46995;55.740;37.402;2023-05-24T10:48:42;99401.69;;;22.29;55.21
61109;BME280;46995;55.740;37.402;2023-05-24T10:51:35;99410.28;;;22.51;54.14
61109;BME280;46995;55.740;37.402;2023-05-24T10:54:18;99410.06;;;22.59;53.19
61109;BME280;46995;55.740;37.402;2023-05-24T10:56:49;99398.47;;;22.59;55.09
61109;BME280;46995;55.740;37.402;2023-05-24T10:59:35;99422.63;;;22.85;53.89
61109;BME280;46995;55.740;37.402;2023-05-24T11:02:08;99408.59;;;22.76;53.43
61109;BME280;46995;55.740;37.402;2023-05-24T11:04:39;99409.00;;;22.67;53.41
61109;BME280;46995;55.740;37.402;2023-05-24T11:07:09;99376.59;;;22.42;54.01
61109;BME280;46995;55.740;37.402;2023-05-24T11:09:37;99409.44;;;22.57;54.17
61109;BME280;46995;55.740;37.402;2023-05-24T11:12:13;99425.41;;;22.59;54.73
61109;BME280;46995;55.740;37.402;2023-05-24T11:14:46;99392.16;;;22.33;54.84
61109;BME280;46995;55.740;37.402;2023-05-24T11:17:13;99413.84;;;22.45;54.30
61109;BME280;46995;55.740;37.402;2023-05-24T11:19:46;99427.44;;;22.63;53.51
61109;BME280;46995;55.740;37.402;2023-05-24T11:22:13;99415.00;;;22.69;54.06
61109;BME280;46995;55.740;37.402;2023-05-24T11:24:42;99413.81;;;23.09;52.86
61109;BME280;46995;55.740;37.402;2023-05-24T11:27:10;99402.16;;;23.22;52.10
61109;BME280;46995;55.740;37.402;2023-05-24T11:29:43;99407.88;;;23.32;51.10
61109;BME280;46995;55.740;37.402;2023-05-24T11:32:14;99441.41;;;23.49;51.43
61109;BME280;46995;55.740;37.402;2023-05-24T11:34:40;99410.72;;;23.44;51.82
61109;BME280;46995;55.740;37.402;2023-05-24T11:37:09;99412.34;;;23.51;51.56
61109;BME280;46995;55.740;37.402;2023-05-24T11:39:38;99425.13;;;23.62;51.52
61109;BME280;46995;55.740;37.402;2023-05-24T11:42:05;99414.53;;;23.61;52.18
61109;BME280;46995;55.740;37.402;2023-05-24T11:44:31;99427.72;;;23.76;51.37
61109;BME280;46995;55.740;37.402;2023-05-24T11:46:58;99421.00;;;23.85;51.10
61109;BME280;46995;55.740;37.402;2023-05-24T11:49:25;99416.31;;;23.74;51.09
61109;BME280;46995;55.740;37.402;2023-05-24T11:51:53;99414.84;;;23.78;51.22
61109;BME280;46995;55.740;37.402;2023-05-24T11:54:19;99436.56;;;23.83;50.95
61109;BME280;46995;55.740;37.402;2023-05-24T11:56:54;99416.28;;;23.80;50.32
61109;BME280;46995;55.740;37.402;2023-05-24T11:59:24;99424.41;;;23.98;49.88
61109;BME280;46995;55.740;37.402;2023-05-24T12:02:01;99401.09;;;24.04;49.62
61109;BME280;46995;55.740;37.402;2023-05-24T12:04:28;99424.91;;;24.38;49.13
61109;BME280;46995;55.740;37.402;2023-05-24T12:06:54;99420.81;;;24.66;48.57
61109;BME280;46995;55.740;37.402;2023-05-24T12:09:21;99429.38;;;25.17;47.28
61109;BME280;46995;55.740;37.402;2023-05-24T12:11:49;99430.84;;;25.31;47.22
61109;BME280;46995;55.740;37.402;2023-05-24T12:14:17;99417.47;;;25.07;46.48
61109;BME280;46995;55.740;37.402;2023-05-24T12:16:44;99403.66;;;24.78;47.81
61109;BME280;46995;55.740;37.402;2023-05-24T12:19:19;99420.06;;;24.77;48.21
61109;BME280;46995;55.740;37.402;2023-05-24T12:21:46;99420.78;;;24.54;48.28
61109;BME280;46995;55.740;37.402;2023-05-24T12:24:15;99423.91;;;24.51;48.97
61109;BME280;46995;55.740;37.402;2023-05-24T12:26:48;99411.81;;;24.17;48.47
61109;BME280;46995;55.740;37.402;2023-05-24T12:29:14;99383.47;;;23.83;48.65
61109;BME280;46995;55.740;37.402;2023-05-24T12:31:41;99419.88;;;23.92;48.84
61109;BME280;46995;55.740;37.402;2023-05-24T12:34:11;99426.22;;;23.80;49.51
61109;BME280;46995;55.740;37.402;2023-05-24T12:36:37;99370.06;;;23.45;49.77
61109;BME280;46995;55.740;37.402;2023-05-24T12:39:20;99405.53;;;23.74;49.21
61109;BME280;46995;55.740;37.402;2023-05-24T12:41:53;99403.72;;;23.68;49.63
61109;BME280;46995;55.740;37.402;2023-05-24T12:44:23;99399.81;;;23.63;50.13
61109;BME280;46995;55.740;37.402;2023-05-24T12:47:06;99366.75;;;23.50;49.42
61109;BME280;46995;55.740;37.402;2023-05-24T12:49:32;99406.00;;;23.71;50.04
61109;BME280;46995;55.740;37.402;2023-05-24T12:51:58;99402.94;;;23.60;49.83
61109;BME280;46995;55.740;37.402;2023-05-24T12:54:26;99398.47;;;23.41;49.57
61109;BME280;46995;55.740;37.402;2023-05-24T12:56:53;99402.78;;;23.17;50.18
61109;BME280;46995;55.740;37.402;2023-05-24T12:59:20;99414.59;;;23.16;50.68
61109;BME280;46995;55.740;37.402;2023-05-24T13:01:46;99403.09;;;23.03;50.68
61109;BME280;46995;55.740;37.402;2023-05-24T13:04:49;99418.13;;;23.17;51.09
61109;BME280;46995;55.740;37.402;2023-05-24T13:11:26;99358.38;;;22.89;49.87
61109;BME280;46995;55.740;37.402;2023-05-24T13:22:13;99384.13;;;22.78;49.75
61109;BME280;46995;55.740;37.402;2023-05-24T13:24:42;99404.41;;;22.87;49.81
61109;BME280;46995;55.740;37.402;2023-05-24T13:27:09;99346.13;;;22.48;49.84
61109;BME280;46995;55.740;37.402;2023-05-24T13:29:43;99366.38;;;22.57;50.20
61109;BME280;46995;55.740;37.402;2023-05-24T13:32:48;99423.03;;;22.89;49.96
61109;BME280;46995;55.740;37.402;2023-05-24T13:39:22;99419.28;;;22.96;50.27
61109;BME280;46995;55.740;37.402;2023-05-24T13:41:48;99373.59;;;22.76;49.97
61109;BME280;46995;55.740;37.402;2023-05-24T13:44:24;99399.81;;;22.94;50.77
61109;BME280;46995;55.740;37.402;2023-05-24T13:52:14;99376.59;;;22.93;50.25
61109;BME280;46995;55.740;37.402;2023-05-24T13:55:21;99397.69;;;23.03;50.46
61109;BME280;46995;55.740;37.402;2023-05-24T14:03:53;99421.31;;;23.07;51.09
61109;BME280;46995;55.740;37.402;2023-05-24T14:23:57;99427.84;;;22.73;51.37
61109;BME280;46995;55.740;37.402;2023-05-24T14:39:27;99338.28;;;22.40;50.68
61109;BME280;46995;55.740;37.402;2023-05-24T14:42:06;99430.66;;;22.98;51.19